createdAt,value
2023-02-08T00:00:05.327Z,103903.97
2023-02-08T00:02:31.779Z,103918.00
2023-02-08T00:04:58.247Z,103903.13
2023-02-08T00:07:25.656Z,103914.53
2023-02-08T00:09:52.092Z,103912.69
2023-02-08T00:12:18.543Z,103917.09
2023-02-08T00:14:44.996Z,103896.06
2023-02-08T00:17:11.379Z,103907.47
2023-02-08T00:19:37.796Z,103909.22
2023-02-08T00:22:04.288Z,103908.38
2023-02-08T00:24:30.689Z,103910.97
2023-02-08T00:26:57.094Z,103909.22
2023-02-08T00:29:23.591Z,103892.63
2023-02-08T00:31:50.239Z,103903.97
2023-02-08T00:34:16.683Z,103893.53
2023-02-08T00:36:43.181Z,103876.94
2023-02-08T00:39:09.580Z,103859.34
2023-02-08T00:41:35.947Z,103884.75
2023-02-08T00:44:02.433Z,103889.97
2023-02-08T00:46:28.868Z,103886.47
2023-02-08T00:48:55.388Z,103894.34
2023-02-08T00:51:21.994Z,103893.44
2023-02-08T00:53:48.391Z,103881.19
2023-02-08T00:56:15.840Z,103883.81
2023-02-08T00:58:43.398Z,103898.75
2023-02-08T01:01:10.165Z,103883.91
2023-02-08T01:03:39.090Z,103873.34
2023-02-08T01:06:07.748Z,103895.25
2023-02-08T01:08:34.228Z,103895.25
2023-02-08T01:11:27.305Z,103892.63
2023-02-08T01:13:57.380Z,103897.84
2023-02-08T01:16:25.474Z,103890.91
2023-02-08T01:18:53.565Z,103896.06
2023-02-08T01:21:22.461Z,103881.19
2023-02-08T01:23:49.930Z,103891.69
2023-02-08T01:26:17.756Z,103885.56
2023-02-08T01:28:44.237Z,103875.94
2023-02-08T01:31:17.457Z,103874.19
2023-02-08T01:33:43.932Z,103863.69
2023-02-08T01:36:11.019Z,103854.00
2023-02-08T01:38:38.521Z,103861.94
2023-02-08T01:41:07.155Z,103865.41
2023-02-08T01:43:54.819Z,103869.78
2023-02-08T01:46:21.670Z,103877.59
2023-02-08T01:48:48.871Z,103874.97
2023-02-08T01:51:21.144Z,103798.69
2023-02-08T01:53:50.621Z,103871.41
2023-02-08T01:56:28.449Z,103871.41
2023-02-08T01:59:00.143Z,103870.53
2023-02-08T02:01:28.941Z,103875.78
2023-02-08T02:03:55.899Z,103846.84
2023-02-08T02:06:26.292Z,103848.56
2023-02-08T02:09:10.267Z,103868.78
2023-02-08T02:11:37.173Z,103827.53
2023-02-08T02:14:04.304Z,103856.47
2023-02-08T02:16:30.784Z,103866.97
2023-02-08T02:18:57.805Z,103836.25
2023-02-08T02:21:40.903Z,103871.31
2023-02-08T02:24:28.341Z,103860.81
2023-02-08T02:27:25.339Z,103856.47
2023-02-08T02:30:16.647Z,103860.78
2023-02-08T02:33:07.136Z,103832.69
2023-02-08T02:35:55.060Z,103869.41
2023-02-08T02:38:32.371Z,103858.84
2023-02-08T02:41:43.584Z,103887.72
2023-02-08T02:44:40.182Z,103863.22
2023-02-08T02:47:25.524Z,103827.25
2023-02-08T02:50:03.159Z,103875.50
2023-02-08T02:52:44.886Z,103874.59
2023-02-08T02:55:15.444Z,103892.06
2023-02-08T02:57:44.944Z,103864.88
2023-02-08T03:00:17.747Z,103871.00
2023-02-08T03:02:45.030Z,103885.94
2023-02-08T03:05:12.367Z,103864.00
2023-02-08T03:08:00.112Z,103863.13
2023-02-08T03:11:12.485Z,103887.69
2023-02-08T03:14:01.507Z,103884.13
2023-02-08T03:16:30.826Z,103880.59
2023-02-08T03:19:34.405Z,103894.53
2023-02-08T03:22:19.841Z,103898.00
2023-02-08T03:24:56.956Z,103895.34
2023-02-08T03:27:43.128Z,103866.38
2023-02-08T03:30:18.253Z,103852.31
2023-02-08T03:32:51.016Z,103848.88
2023-02-08T03:35:25.948Z,103879.50
2023-02-08T03:38:00.410Z,103872.50
2023-02-08T03:40:38.015Z,103882.22
2023-02-08T03:43:23.206Z,103884.78
2023-02-08T03:45:54.214Z,103884.72
2023-02-08T03:48:24.427Z,103889.16
2023-02-08T03:50:53.875Z,103876.00
2023-02-08T03:53:23.537Z,103859.34
2023-02-08T03:55:58.263Z,103891.84
2023-02-08T03:59:02.321Z,103897.09
2023-02-08T04:01:44.168Z,103901.44
2023-02-08T04:04:12.582Z,103873.38
2023-02-08T04:06:39.038Z,103890.97
2023-02-08T04:09:05.602Z,103891.75
2023-02-08T04:11:32.043Z,103903.19
2023-02-08T04:13:58.512Z,103902.34
2023-02-08T04:16:25.052Z,103894.50
2023-02-08T04:18:51.544Z,103897.13
2023-02-08T04:21:18.016Z,103885.75
2023-02-08T04:23:44.468Z,103892.78
2023-02-08T04:26:10.999Z,103886.69
2023-02-08T04:28:37.494Z,103892.78
2023-02-08T04:31:04.167Z,103863.84
2023-02-08T04:33:30.737Z,103868.31
2023-02-08T04:35:57.153Z,103867.41
2023-02-08T04:38:23.559Z,103869.22
2023-02-08T04:40:50.096Z,103861.31
2023-02-08T04:43:16.507Z,103867.44
2023-02-08T04:45:42.932Z,103855.13
2023-02-08T04:48:11.019Z,103846.34
2023-02-08T04:50:39.620Z,103867.38
2023-02-08T04:53:06.724Z,103869.09
2023-02-08T04:55:33.340Z,103868.25
2023-02-08T04:57:59.815Z,103859.47
2023-02-08T05:00:26.694Z,103848.91
2023-02-08T05:02:57.401Z,103870.84
2023-02-08T05:05:28.310Z,103861.25
2023-02-08T05:07:54.715Z,103846.31
2023-02-08T05:10:21.511Z,103843.75
2023-02-08T05:12:47.937Z,103850.75
2023-02-08T05:15:14.408Z,103835.84
2023-02-08T05:17:40.993Z,103848.06
2023-02-08T05:20:08.756Z,103827.94
2023-02-08T05:22:35.264Z,103835.91
2023-02-08T05:25:01.893Z,103854.41
2023-02-08T05:27:28.594Z,103800.97
2023-02-08T05:29:55.009Z,103808.94
2023-02-08T05:32:21.478Z,103849.34
2023-02-08T05:34:48.044Z,103852.88
2023-02-08T05:37:14.437Z,103846.88
2023-02-08T05:39:40.917Z,103843.44
2023-02-08T05:42:07.362Z,103839.09
2023-02-08T05:44:33.860Z,103809.38
2023-02-08T05:47:00.369Z,103815.50
2023-02-08T05:49:46.281Z,103809.53
2023-02-08T05:52:12.723Z,103787.69
2023-02-08T05:54:39.236Z,103823.69
2023-02-08T05:57:05.819Z,103837.66
2023-02-08T05:59:32.231Z,103847.31
2023-02-08T06:01:58.649Z,103842.97
2023-02-08T06:04:25.086Z,103811.47
2023-02-08T06:06:51.560Z,103837.75
2023-02-08T06:09:17.960Z,103832.53
2023-02-08T06:11:44.676Z,103832.50
2023-02-08T06:14:11.184Z,103836.00
2023-02-08T06:16:37.648Z,103856.13
2023-02-08T06:19:04.088Z,103836.81
2023-02-08T06:21:30.533Z,103856.97
2023-02-08T06:23:56.918Z,103859.59
2023-02-08T06:26:23.358Z,103835.09
2023-02-08T06:28:49.783Z,103851.75
2023-02-08T06:31:16.299Z,103837.66
2023-02-08T06:33:42.712Z,103863.09
2023-02-08T06:36:09.321Z,103873.56
2023-02-08T06:38:36.394Z,103869.19
2023-02-08T06:41:05.544Z,103868.34
2023-02-08T06:43:31.956Z,103862.19
2023-02-08T06:45:58.477Z,103840.31
2023-02-08T06:48:24.984Z,103868.25
2023-02-08T06:50:55.199Z,103873.47
2023-02-08T06:53:21.580Z,103864.72
2023-02-08T06:55:51.765Z,103851.56
2023-02-08T06:58:18.714Z,103859.44
2023-02-08T07:00:45.544Z,103837.53
2023-02-08T07:03:13.534Z,103860.28
2023-02-08T07:05:40.522Z,103854.16
2023-02-08T07:08:07.889Z,103840.16
2023-02-08T07:10:35.023Z,103820.00
2023-02-08T07:13:04.390Z,103830.53
2023-02-08T07:15:31.041Z,103850.75
2023-02-08T07:17:57.535Z,103842.91
2023-02-08T07:20:24.645Z,103849.91
2023-02-08T07:22:51.017Z,103846.44
2023-02-08T07:25:17.521Z,103839.44
2023-02-08T07:27:43.880Z,103846.53
2023-02-08T07:30:10.827Z,103847.41
2023-02-08T07:32:37.327Z,103855.31
2023-02-08T07:35:03.781Z,103850.13
2023-02-08T07:37:30.227Z,103847.53
2023-02-08T07:39:56.703Z,103849.31
2023-02-08T07:42:23.121Z,103849.31
2023-02-08T07:44:50.867Z,103857.19
2023-02-08T07:47:17.428Z,103858.06
2023-02-08T07:49:43.885Z,103834.44
2023-02-08T07:52:10.845Z,103825.72
2023-02-08T07:54:37.229Z,103816.94
2023-02-08T07:57:03.999Z,103831.84
2023-02-08T07:59:30.565Z,103849.41
2023-02-08T08:01:57.128Z,103817.00
2023-02-08T08:04:23.620Z,103842.41
2023-02-08T08:06:51.448Z,103844.16
2023-02-08T08:09:18.004Z,103846.78
2023-02-08T08:11:44.436Z,103839.84
2023-02-08T08:14:11.097Z,103838.97
2023-02-08T08:16:37.544Z,103845.09
2023-02-08T08:19:04.026Z,103834.63
2023-02-08T08:21:30.452Z,103835.53
2023-02-08T08:23:56.961Z,103826.78
2023-02-08T08:26:23.529Z,103834.66
2023-02-08T08:28:50.043Z,103821.59
2023-02-08T08:31:20.283Z,103827.72
2023-02-08T08:33:47.766Z,103824.25
2023-02-08T08:36:14.509Z,103837.38
2023-02-08T08:38:41.779Z,103813.78
2023-02-08T08:41:14.772Z,103836.56
2023-02-08T08:43:41.854Z,103841.78
2023-02-08T08:46:09.321Z,103785.84
2023-02-08T08:48:38.169Z,103831.31
2023-02-08T08:51:05.076Z,103837.47
2023-02-08T08:53:31.574Z,103836.59
2023-02-08T08:55:58.032Z,103780.63
2023-02-08T08:58:26.212Z,103813.00
2023-02-08T09:00:54.004Z,103831.38
2023-02-08T09:03:20.547Z,103833.13
2023-02-08T09:05:47.200Z,103832.22
2023-02-08T09:08:13.807Z,103832.22
2023-02-08T09:10:41.058Z,103826.09
2023-02-08T09:13:08.297Z,103830.41
2023-02-08T09:15:38.031Z,103828.59
2023-02-08T09:18:04.640Z,103834.66
2023-02-08T09:20:31.236Z,103802.22
2023-02-08T09:22:57.656Z,103806.47
2023-02-08T09:25:24.112Z,103822.09
2023-02-08T09:27:50.517Z,103817.66
2023-02-08T09:30:16.905Z,103823.66
2023-02-08T09:32:44.351Z,103829.66
2023-02-08T09:35:13.281Z,103831.34
2023-02-08T09:37:39.649Z,103830.38
2023-02-08T09:40:06.461Z,103829.44
2023-02-08T09:42:42.030Z,103801.34
2023-02-08T09:45:21.948Z,103835.19
2023-02-08T09:47:53.719Z,103828.84
2023-02-08T09:50:36.660Z,103793.72
2023-02-08T09:53:25.106Z,103842.44
2023-02-08T09:55:58.144Z,103830.78
2023-02-08T09:58:37.775Z,103827.00
2023-02-08T10:01:08.573Z,103804.97
2023-02-08T10:03:39.103Z,103835.16
2023-02-08T10:06:09.608Z,103791.16
2023-02-08T10:08:36.625Z,103835.28
2023-02-08T10:11:28.138Z,103824.22
2023-02-08T10:14:20.517Z,103788.66
2023-02-08T10:17:11.003Z,103819.38
2023-02-08T10:19:49.657Z,103819.50
2023-02-08T10:22:25.346Z,103819.13
2023-02-08T10:25:24.013Z,103824.22
2023-02-08T10:28:02.541Z,103832.53
2023-02-08T10:30:38.189Z,103827.41
2023-02-08T10:33:18.515Z,103829.38
2023-02-08T10:35:48.262Z,103830.66
2023-02-08T10:38:20.791Z,103825.50
2023-02-08T10:40:59.862Z,103839.66
2023-02-08T10:43:35.340Z,103828.53
2023-02-08T10:46:12.103Z,103828.69
2023-02-08T10:48:50.079Z,103810.78
2023-02-08T10:51:23.982Z,103822.06
2023-02-08T10:53:50.536Z,103821.72
2023-02-08T10:56:50.882Z,103806.09
2023-02-08T10:59:21.636Z,103807.91
2023-02-08T11:01:49.886Z,103792.66
2023-02-08T11:04:17.994Z,103808.78
2023-02-08T11:06:46.363Z,103800.75
2023-02-08T11:09:38.925Z,103807.75
2023-02-08T11:12:05.510Z,103802.53
2023-02-08T11:14:47.284Z,103800.06
2023-02-08T11:17:32.768Z,103764.56
2023-02-08T11:19:59.824Z,103791.63
2023-02-08T11:22:31.314Z,103787.53
2023-02-08T11:25:07.506Z,103778.00
2023-02-08T11:27:36.522Z,103787.34
2023-02-08T11:30:15.638Z,103776.81
2023-02-08T11:32:44.463Z,103787.78
2023-02-08T11:35:26.920Z,103780.94
2023-02-08T11:37:56.161Z,103765.47
2023-02-08T11:40:34.509Z,103769.22
2023-02-08T11:43:02.045Z,103747.50
2023-02-08T11:45:33.855Z,103748.16
2023-02-08T11:48:03.010Z,103769.78
2023-02-08T11:50:38.383Z,103764.91
2023-02-08T11:53:23.218Z,103762.69
2023-02-08T11:56:06.176Z,103763.03
2023-02-08T11:58:34.276Z,103772.41
2023-02-08T12:01:16.814Z,103760.44
2023-02-08T12:03:44.950Z,103746.72
2023-02-08T12:06:42.912Z,103755.59
2023-02-08T12:09:21.190Z,103753.59
2023-02-08T12:11:56.973Z,103748.09
2023-02-08T12:14:47.779Z,103737.28
2023-02-08T12:17:22.680Z,103746.66
2023-02-08T12:20:10.503Z,103683.66
2023-02-08T12:22:41.744Z,103746.06
2023-02-08T12:25:26.436Z,103725.06
2023-02-08T12:28:06.332Z,103719.19
2023-02-08T12:30:37.166Z,103722.50
2023-02-08T12:33:26.557Z,103712.06
2023-02-08T12:36:05.320Z,103718.84
2023-02-08T12:39:26.007Z,103716.31
2023-02-08T12:41:55.622Z,103706.75
2023-02-08T12:44:36.340Z,103689.44
2023-02-08T12:47:13.805Z,103668.09
2023-02-08T12:50:02.214Z,103684.16
2023-02-08T12:53:04.056Z,103674.34
2023-02-08T12:55:35.560Z,103671.34
2023-02-08T12:58:16.870Z,103667.97
2023-02-08T13:00:45.394Z,103648.06
2023-02-08T13:03:32.100Z,103660.81
2023-02-08T13:06:02.459Z,103627.84
2023-02-08T13:08:36.169Z,103643.91
2023-02-08T13:11:19.105Z,103650.25
2023-02-08T13:13:58.782Z,103638.88
2023-02-08T13:16:31.341Z,103646.97
2023-02-08T13:19:21.921Z,103631.09
2023-02-08T13:21:49.484Z,103637.38
2023-02-08T13:24:28.696Z,103622.91
2023-02-08T13:26:55.170Z,103626.69
2023-02-08T13:29:23.565Z,103627.22
2023-02-08T13:31:56.494Z,103582.56
2023-02-08T13:34:41.012Z,103586.34
2023-02-08T13:37:32.373Z,103604.09
2023-02-08T13:40:00.429Z,103615.56
2023-02-08T13:42:55.892Z,103610.63
2023-02-08T13:45:30.582Z,103608.91
2023-02-08T13:48:08.705Z,103589.69
2023-02-08T13:50:35.126Z,103605.09
2023-02-08T13:53:03.130Z,103564.09
2023-02-08T13:55:33.470Z,103598.47
2023-02-08T13:58:15.194Z,103598.25
2023-02-08T14:01:21.662Z,103594.47
2023-02-08T14:04:06.694Z,103592.25
2023-02-08T14:06:37.637Z,103563.25
2023-02-08T14:09:07.002Z,103586.56
2023-02-08T14:11:49.605Z,103591.09
2023-02-08T14:14:21.087Z,103580.47
2023-02-08T14:17:07.420Z,103583.88
2023-02-08T14:19:38.705Z,103581.81
2023-02-08T14:22:06.957Z,103575.34
2023-02-08T14:24:39.413Z,103571.88
2023-02-08T14:27:28.440Z,103571.09
2023-02-08T14:30:20.712Z,103559.31
2023-02-08T14:33:07.851Z,103560.31
2023-02-08T14:35:42.016Z,103549.09
2023-02-08T14:38:20.686Z,103548.75
2023-02-08T14:40:49.481Z,103554.38
2023-02-08T14:43:18.981Z,103537.00
2023-02-08T14:45:51.071Z,103542.69
2023-02-08T14:48:44.454Z,103547.50
2023-02-08T14:51:11.075Z,103546.97
2023-02-08T14:53:52.353Z,103540.44
2023-02-08T14:56:28.066Z,103532.34
2023-02-08T14:59:01.548Z,103527.56
2023-02-08T15:01:27.906Z,103532.56
2023-02-08T15:04:02.173Z,103508.44
2023-02-08T15:06:37.900Z,103531.22
2023-02-08T15:09:24.955Z,103529.88
2023-02-08T15:12:00.574Z,103541.56
2023-02-08T15:14:28.045Z,103530.47
2023-02-08T15:16:56.062Z,103532.66
2023-02-08T15:19:34.684Z,103526.59
2023-02-08T15:22:29.852Z,103528.75
2023-02-08T15:25:01.952Z,103524.06
2023-02-08T15:27:31.562Z,103521.25
2023-02-08T15:29:58.202Z,103516.63
2023-02-08T15:32:27.616Z,103511.91
2023-02-08T15:34:55.164Z,103521.09
2023-02-08T15:37:21.860Z,103518.66
2023-02-08T15:39:55.467Z,103509.00
2023-02-08T15:42:24.923Z,103503.03
2023-02-08T15:44:51.623Z,103464.00
2023-02-08T15:47:26.223Z,103466.03
2023-02-08T15:49:55.449Z,103501.44
2023-02-08T15:52:25.038Z,103500.47
2023-02-08T15:54:52.216Z,103496.19
2023-02-08T15:57:46.365Z,103494.97
2023-02-08T16:00:22.289Z,103490.59
2023-02-08T16:02:58.984Z,103499.09
2023-02-08T16:05:28.776Z,103503.13
2023-02-08T16:07:56.084Z,103494.88
2023-02-08T16:10:38.696Z,103498.78
2023-02-08T16:13:20.433Z,103455.06
2023-02-08T16:15:53.629Z,103497.06
2023-02-08T16:18:38.065Z,103494.03
2023-02-08T16:21:06.941Z,103483.91
2023-02-08T16:23:35.146Z,103491.38
2023-02-08T16:26:27.018Z,103483.72
2023-02-08T16:29:00.830Z,103478.78
2023-02-08T16:31:30.652Z,103450.25
2023-02-08T16:34:13.499Z,103470.53
2023-02-08T16:36:42.042Z,103459.50
2023-02-08T16:39:14.509Z,103452.56
2023-02-08T16:41:58.836Z,103450.16
2023-02-08T16:44:33.440Z,103451.13
2023-02-08T16:47:01.484Z,103450.50
2023-02-08T16:49:28.284Z,103438.31
2023-02-08T16:51:58.885Z,103421.19
2023-02-08T16:54:28.373Z,103445.66
2023-02-08T16:56:59.823Z,103448.41
2023-02-08T16:59:27.804Z,103448.50
2023-02-08T17:01:56.142Z,103379.88
2023-02-08T17:04:26.410Z,103444.47
2023-02-08T17:06:53.666Z,103440.13
2023-02-08T17:09:20.084Z,103440.28
2023-02-08T17:11:46.520Z,103417.78
2023-02-08T17:14:12.980Z,103429.97
2023-02-08T17:16:39.952Z,103388.34
2023-02-08T17:19:07.137Z,103398.91
2023-02-08T17:21:33.542Z,103436.53
2023-02-08T17:24:00.112Z,103424.19
2023-02-08T17:26:29.231Z,103416.28
2023-02-08T17:28:57.580Z,103417.22
2023-02-08T17:31:24.253Z,103409.31
2023-02-08T17:33:50.822Z,103411.06
2023-02-08T17:36:18.066Z,103398.84
2023-02-08T17:38:45.970Z,103353.69
2023-02-08T17:41:18.065Z,103401.63
2023-02-08T17:43:45.411Z,103404.31
2023-02-08T17:46:15.952Z,103357.38
2023-02-08T17:48:42.614Z,103372.25
2023-02-08T17:51:16.045Z,103401.06
2023-02-08T17:53:43.757Z,103405.56
2023-02-08T17:56:13.317Z,103395.13
2023-02-08T17:58:42.977Z,103396.81
2023-02-08T18:01:18.892Z,103394.19
2023-02-08T18:03:47.316Z,103396.97
2023-02-08T18:06:14.211Z,103362.13
2023-02-08T18:08:41.650Z,103382.97
2023-02-08T18:11:17.889Z,103362.22
2023-02-08T18:13:45.153Z,103380.53
2023-02-08T18:16:18.000Z,103374.41
2023-02-08T18:18:44.695Z,103367.34
2023-02-08T18:21:20.482Z,103359.59
2023-02-08T18:23:47.870Z,103345.81
2023-02-08T18:26:17.802Z,103359.66
2023-02-08T18:28:44.998Z,103363.38
2023-02-08T18:31:15.202Z,103362.31
2023-02-08T18:33:42.474Z,103360.56
2023-02-08T18:36:12.484Z,103329.31
2023-02-08T18:38:46.315Z,103360.75
2023-02-08T18:41:16.963Z,103361.72
2023-02-08T18:43:43.464Z,103354.84
2023-02-08T18:46:12.651Z,103350.59
2023-02-08T18:48:40.234Z,103347.09
2023-02-08T18:51:09.416Z,103332.22
2023-02-08T18:53:38.691Z,103339.31
2023-02-08T18:56:08.136Z,103325.38
2023-02-08T18:58:34.945Z,103322.75
2023-02-08T19:01:15.744Z,103318.41
2023-02-08T19:03:43.507Z,103302.69
2023-02-08T19:06:12.432Z,103290.88
2023-02-08T19:08:40.393Z,103310.72
2023-02-08T19:11:20.206Z,103316.91
2023-02-08T19:13:47.523Z,103323.03
2023-02-08T19:16:15.493Z,103322.22
2023-02-08T19:18:41.935Z,103306.66
2023-02-08T19:21:11.187Z,103316.22
2023-02-08T19:23:37.689Z,103317.22
2023-02-08T19:26:06.844Z,103308.56
2023-02-08T19:28:34.598Z,103320.03
2023-02-08T19:31:11.494Z,103301.00
2023-02-08T19:33:42.809Z,103320.25
2023-02-08T19:36:11.881Z,103314.16
2023-02-08T19:38:38.436Z,103313.41
2023-02-08T19:41:06.326Z,103315.16
2023-02-08T19:43:33.467Z,103322.28
2023-02-08T19:46:00.326Z,103318.88
2023-02-08T19:48:27.279Z,103305.88
2023-02-08T19:50:58.786Z,103310.38
2023-02-08T19:53:26.579Z,103312.19
2023-02-08T19:55:55.959Z,103305.25
2023-02-08T19:58:22.438Z,103293.94
2023-02-08T20:00:49.149Z,103294.09
2023-02-08T20:03:21.617Z,103297.59
2023-02-08T20:05:50.009Z,103303.72
2023-02-08T20:08:17.556Z,103292.34
2023-02-08T20:10:46.150Z,103273.34
2023-02-08T20:13:13.973Z,103281.13
2023-02-08T20:15:42.718Z,103289.09
2023-02-08T20:18:11.684Z,103292.69
2023-02-08T20:20:38.147Z,103295.25
2023-02-08T20:23:14.086Z,103278.66
2023-02-08T20:25:47.284Z,103286.53
2023-02-08T20:28:13.798Z,103277.03
2023-02-08T20:30:40.852Z,103280.53
2023-02-08T20:33:07.290Z,103286.72
2023-02-08T20:35:36.647Z,103289.34
2023-02-08T20:38:03.212Z,103289.38
2023-02-08T20:40:29.800Z,103293.78
2023-02-08T20:42:56.296Z,103294.72
2023-02-08T20:45:22.965Z,103283.50
2023-02-08T20:47:49.413Z,103297.44
2023-02-08T20:50:19.530Z,103297.50
2023-02-08T20:52:47.341Z,103249.72
2023-02-08T20:55:13.866Z,103301.97
2023-02-08T20:57:40.839Z,103290.69
2023-02-08T21:00:07.941Z,103287.25
2023-02-08T21:02:34.525Z,103290.75
2023-02-08T21:05:01.090Z,103293.44
2023-02-08T21:07:27.598Z,103235.22
2023-02-08T21:09:54.101Z,103287.47
2023-02-08T21:12:20.613Z,103295.38
2023-02-08T21:14:47.350Z,103291.03
2023-02-08T21:17:13.940Z,103271.16
2023-02-08T21:19:40.694Z,103292.94
2023-02-08T21:22:07.106Z,103277.22
2023-02-08T21:24:33.614Z,103283.44
2023-02-08T21:27:00.910Z,103279.13
2023-02-08T21:29:29.192Z,103251.31
2023-02-08T21:31:57.477Z,103267.91
2023-02-08T21:34:24.671Z,103268.81
2023-02-08T21:36:51.257Z,103274.16
2023-02-08T21:39:18.230Z,103271.56
2023-02-08T21:41:44.949Z,103265.56
2023-02-08T21:44:11.572Z,103261.22
2023-02-08T21:46:38.150Z,103251.66
2023-02-08T21:49:23.210Z,103249.00
2023-02-08T21:52:08.758Z,103256.03
2023-02-08T21:54:55.007Z,103245.59
2023-02-08T21:57:23.240Z,103236.91
2023-02-08T21:59:52.255Z,103230.81
2023-02-08T22:02:27.874Z,103216.06
2023-02-08T22:05:15.097Z,103200.47
2023-02-08T22:07:57.209Z,103218.72
2023-02-08T22:10:26.739Z,103195.25
2023-02-08T22:12:55.213Z,103173.53
2023-02-08T22:15:24.862Z,103210.09
2023-02-08T22:17:58.533Z,103201.34
2023-02-08T22:20:28.456Z,103181.38
2023-02-08T22:22:55.517Z,103196.25
2023-02-08T22:25:22.601Z,103177.09
2023-02-08T22:27:49.427Z,103144.94
2023-02-08T22:30:18.075Z,103188.38
2023-02-08T22:32:48.356Z,103187.50
2023-02-08T22:35:17.365Z,103184.91
2023-02-08T22:37:44.148Z,103182.25
2023-02-08T22:40:12.679Z,103184.91
2023-02-08T22:42:41.167Z,103183.06
2023-02-08T22:45:08.300Z,103173.53
2023-02-08T22:47:35.468Z,103178.69
2023-02-08T22:50:02.199Z,103148.19
2023-02-08T22:52:28.786Z,103160.38
2023-02-08T22:54:56.109Z,103163.78
2023-02-08T22:57:22.600Z,103140.25
2023-02-08T22:59:49.127Z,103143.69
2023-02-08T23:02:17.868Z,103170.63
2023-02-08T23:04:44.555Z,103153.22
2023-02-08T23:07:10.999Z,103115.84
2023-02-08T23:09:37.633Z,103161.09
2023-02-08T23:12:04.164Z,103167.19
2023-02-08T23:14:30.647Z,103154.06
2023-02-08T23:16:57.129Z,103157.56
2023-02-08T23:19:23.611Z,103150.59
2023-02-08T23:21:50.049Z,103149.72
2023-02-08T23:24:16.537Z,103154.09
2023-02-08T23:26:42.976Z,103150.59
2023-02-08T23:29:09.490Z,103136.66
2023-02-08T23:31:39.870Z,103135.72
2023-02-08T23:34:06.385Z,103133.97
2023-02-08T23:36:32.996Z,103133.09
2023-02-08T23:39:00.607Z,103129.63
2023-02-08T23:41:27.078Z,103135.78
2023-02-08T23:43:53.540Z,103127.06
2023-02-08T23:46:25.433Z,103126.25
2023-02-08T23:48:52.452Z,103116.66
2023-02-08T23:51:21.427Z,103121.94
2023-02-08T23:53:48.233Z,103120.22
2023-02-08T23:56:21.093Z,103101.13
2023-02-08T23:58:49.921Z,103113.25
